Time;durP1;ratioP1;P1;durP2;ratioP2;P2;SDS_P1;SDS_P2;PMS_P1;PMS_P2;Temp;Humidity;BMP_temperature;BMP_pressure;BME280_temperature;BME280_humidity;BME280_pressure;Samples;Min_cycle;Max_cycle;Signal;HPM_P1;HPM_P2
2022/10/15 00:00:25;;;;;;;0.50;0.50;;;;;;;;;;5060949;28;20289;-62
2022/10/15 00:02:52;;;;;;;0.60;0.60;;;;;;;;;;5066849;28;20324;-62
2022/10/15 00:05:20;;;;;;;1.30;0.75;;;;;;;;;;5060768;28;20246;-62
2022/10/15 00:07:47;;;;;;;0.50;0.50;;;;;;;;;;5067273;28;20267;-63
2022/10/15 00:10:15;;;;;;;0.70;0.68;;;;;;;;;;5066201;28;20206;-62
2022/10/15 00:12:43;;;;;;;0.50;0.47;;;;;;;;;;5070242;28;20668;-63
2022/10/15 00:15:11;;;;;;;0.88;0.45;;;;;;;;;;5067732;28;20320;-62
2022/10/15 00:17:38;;;;;;;1.65;0.40;;;;;;;;;;5065111;28;20217;-63
2022/10/15 00:20:07;;;;;;;0.80;0.43;;;;;;;;;;5065785;28;20296;-62
2022/10/15 00:22:35;;;;;;;0.38;0.38;;;;;;;;;;5061413;28;20299;-63
2022/10/15 00:25:02;;;;;;;0.60;0.60;;;;;;;;;;5070554;28;20293;-62
2022/10/15 00:27:29;;;;;;;1.20;0.68;;;;;;;;;;5071402;28;20292;-62
2022/10/15 00:29:58;;;;;;;0.60;0.60;;;;;;;;;;5067279;28;20683;-63
2022/10/15 00:32:26;;;;;;;0.68;0.65;;;;;;;;;;5066214;28;20206;-62
2022/10/15 00:34:54;;;;;;;0.40;0.40;;;;;;;;;;5066844;28;20327;-62
2022/10/15 00:37:21;;;;;;;0.40;0.40;;;;;;;;;;5066958;28;20754;-62
2022/10/15 00:39:48;;;;;;;1.02;0.50;;;;;;;;;;5062485;28;20206;-63
2022/10/15 00:42:16;;;;;;;1.20;0.40;;;;;;;;;;5066247;28;20216;-63
2022/10/15 00:44:48;;;;;;;1.35;0.60;;;;;;;;;;5067675;28;20237;-62
2022/10/15 00:47:18;;;;;;;0.40;0.40;;;;;;;;;;5069433;28;20669;-62
2022/10/15 00:50:06;;;;;;;0.40;0.40;;;;;;;;;;5066894;28;20797;-62
2022/10/15 00:52:34;;;;;;;0.40;0.40;;;;;;;;;;5067496;28;20282;-62
2022/10/15 00:55:21;;;;;;;0.40;0.40;;;;;;;;;;5069175;28;20292;-62
2022/10/15 00:57:49;;;;;;;0.60;0.43;;;;;;;;;;5067511;28;20229;-62
2022/10/15 01:00:17;;;;;;;0.40;0.40;;;;;;;;;;5067704;28;20202;-62
2022/10/15 01:02:46;;;;;;;0.50;0.50;;;;;;;;;;5064264;28;20721;-62
2022/10/15 01:05:15;;;;;;;1.10;0.30;;;;;;;;;;5068221;28;20244;-62
2022/10/15 01:07:42;;;;;;;1.10;0.40;;;;;;;;;;5069094;28;20233;-62
2022/10/15 01:10:10;;;;;;;0.65;0.38;;;;;;;;;;5065949;28;20289;-62
2022/10/15 01:12:50;;;;;;;0.30;0.30;;;;;;;;;;5068940;28;20208;-62
2022/10/15 01:15:26;;;;;;;0.38;0.38;;;;;;;;;;5067553;28;20256;-62
2022/10/15 01:17:56;;;;;;;1.00;0.47;;;;;;;;;;5067728;28;20221;-63
2022/10/15 01:20:43;;;;;;;1.50;0.50;;;;;;;;;;5064165;28;20281;-62
2022/10/15 01:23:10;;;;;;;0.30;0.30;;;;;;;;;;5068238;28;20781;-62
2022/10/15 01:25:46;;;;;;;1.55;0.43;;;;;;;;;;5069137;28;20240;-62
2022/10/15 01:28:40;;;;;;;0.52;0.52;;;;;;;;;;5061598;28;20271;-61
2022/10/15 01:31:11;;;;;;;0.30;0.30;;;;;;;;;;5077010;28;20202;-62
2022/10/15 01:33:50;;;;;;;0.30;0.30;;;;;;;;;;5066246;28;20193;-62
2022/10/15 01:36:36;;;;;;;0.47;0.47;;;;;;;;;;5064712;28;20303;-63
2022/10/15 01:39:04;;;;;;;0.52;0.47;;;;;;;;;;5061299;28;20213;-63
2022/10/15 01:41:37;;;;;;;0.50;0.50;;;;;;;;;;5064713;28;20293;-63
2022/10/15 01:44:10;;;;;;;0.63;0.40;;;;;;;;;;5068724;28;20229;-63
2022/10/15 01:47:04;;;;;;;0.30;0.30;;;;;;;;;;5062638;28;20323;-63
2022/10/15 01:49:37;;;;;;;0.85;0.40;;;;;;;;;;5062314;28;20306;-63
2022/10/15 01:52:16;;;;;;;0.30;0.30;;;;;;;;;;5067099;28;20229;-63
2022/10/15 01:54:45;;;;;;;0.40;0.40;;;;;;;;;;5063168;28;20808;-63
2022/10/15 01:57:17;;;;;;;0.50;0.50;;;;;;;;;;5062886;28;20671;-63
2022/10/15 01:59:44;;;;;;;0.40;0.40;;;;;;;;;;5066413;28;20251;-63
2022/10/15 02:02:11;;;;;;;0.40;0.40;;;;;;;;;;5066786;28;20211;-62
2022/10/15 02:04:39;;;;;;;0.30;0.30;;;;;;;;;;5061225;28;20202;-62
2022/10/15 02:07:13;;;;;;;0.40;0.40;;;;;;;;;;5067696;28;20781;-63
2022/10/15 02:09:55;;;;;;;0.30;0.30;;;;;;;;;;5066978;28;20215;-62
2022/10/15 02:12:42;;;;;;;0.30;0.30;;;;;;;;;;5067724;28;20263;-63
2022/10/15 02:15:18;;;;;;;1.08;0.40;;;;;;;;;;5064163;28;20304;-62
2022/10/15 02:18:02;;;;;;;0.70;0.70;;;;;;;;;;5065910;28;20689;-61
2022/10/15 02:20:52;;;;;;;0.60;0.60;;;;;;;;;;5059959;28;20659;-62
2022/10/15 02:23:21;;;;;;;0.40;0.40;;;;;;;;;;5034296;28;20193;-62
2022/10/15 02:25:50;;;;;;;0.40;0.40;;;;;;;;;;5056847;28;20259;-61
2022/10/15 02:28:18;;;;;;;0.40;0.40;;;;;;;;;;5064606;28;20304;-61
2022/10/15 02:30:49;;;;;;;0.60;0.43;;;;;;;;;;5061421;28;20289;-62
2022/10/15 02:33:17;;;;;;;0.52;0.40;;;;;;;;;;5065467;28;20285;-62
2022/10/15 02:35:46;;;;;;;0.40;0.40;;;;;;;;;;5066452;28;20289;-62
2022/10/15 02:38:16;;;;;;;0.52;0.40;;;;;;;;;;5064524;28;20637;-63
2022/10/15 02:40:44;;;;;;;1.00;0.40;;;;;;;;;;5064010;28;20244;-63
2022/10/15 02:43:13;;;;;;;0.50;0.43;;;;;;;;;;5065517;28;20209;-61
2022/10/15 02:45:40;;;;;;;2.10;0.50;;;;;;;;;;5065651;28;20679;-62
2022/10/15 02:48:07;;;;;;;0.50;0.50;;;;;;;;;;5064273;28;20217;-63
2022/10/15 02:50:35;;;;;;;0.50;0.50;;;;;;;;;;5061953;28;20272;-62
2022/10/15 02:53:02;;;;;;;0.45;0.40;;;;;;;;;;5060527;28;20594;-63
2022/10/15 02:55:30;;;;;;;1.38;0.50;;;;;;;;;;5056866;28;20281;-63
2022/10/15 02:57:57;;;;;;;0.40;0.40;;;;;;;;;;5066240;28;20228;-62
2022/10/15 03:00:24;;;;;;;0.88;0.50;;;;;;;;;;5066602;28;20214;-62
2022/10/15 03:02:52;;;;;;;0.85;0.40;;;;;;;;;;5067641;28;20216;-62
2022/10/15 03:05:19;;;;;;;1.85;0.30;;;;;;;;;;5065438;28;20735;-63
2022/10/15 03:07:47;;;;;;;0.30;0.30;;;;;;;;;;5060162;28;20275;-62
2022/10/15 03:10:14;;;;;;;0.30;0.30;;;;;;;;;;5049759;28;20230;-62
2022/10/15 03:12:41;;;;;;;0.40;0.40;;;;;;;;;;5061965;28;20208;-62
2022/10/15 03:15:09;;;;;;;0.52;0.45;;;;;;;;;;5064961;28;20691;-61
2022/10/15 03:17:36;;;;;;;0.38;0.38;;;;;;;;;;5066686;28;20263;-63
2022/10/15 03:20:04;;;;;;;0.57;0.38;;;;;;;;;;5066137;28;20213;-63
2022/10/15 03:22:31;;;;;;;0.57;0.30;;;;;;;;;;5065393;28;20248;-62
2022/10/15 03:24:59;;;;;;;0.40;0.40;;;;;;;;;;5068458;28;20300;-61
2022/10/15 03:27:26;;;;;;;1.10;0.40;;;;;;;;;;5058285;28;20229;-61
2022/10/15 03:29:53;;;;;;;0.40;0.40;;;;;;;;;;5068150;28;20223;-63
2022/10/15 03:32:20;;;;;;;1.08;0.50;;;;;;;;;;5067550;28;20277;-62
2022/10/15 03:34:48;;;;;;;0.30;0.30;;;;;;;;;;5064059;28;20206;-62
2022/10/15 03:37:15;;;;;;;1.40;0.40;;;;;;;;;;5068423;28;20353;-61
2022/10/15 03:39:42;;;;;;;0.30;0.30;;;;;;;;;;5071206;28;20216;-62
2022/10/15 03:42:09;;;;;;;0.77;0.40;;;;;;;;;;5062814;28;20206;-63
2022/10/15 03:44:37;;;;;;;0.75;0.43;;;;;;;;;;5069855;28;20198;-61
2022/10/15 03:47:04;;;;;;;1.25;0.45;;;;;;;;;;5070830;28;20233;-61
2022/10/15 03:49:31;;;;;;;0.50;0.50;;;;;;;;;;5064023;28;20245;-62
2022/10/15 03:51:59;;;;;;;0.45;0.30;;;;;;;;;;5068446;28;20288;-62
2022/10/15 03:54:26;;;;;;;0.47;0.40;;;;;;;;;;5070377;28;20296;-62
2022/10/15 03:56:53;;;;;;;0.50;0.50;;;;;;;;;;5062059;28;20214;-61
2022/10/15 03:59:20;;;;;;;0.40;0.40;;;;;;;;;;5063060;28;20301;-61
2022/10/15 04:01:48;;;;;;;0.57;0.47;;;;;;;;;;5063611;28;20263;-61
2022/10/15 04:04:15;;;;;;;1.55;0.50;;;;;;;;;;5069288;28;20210;-62
2022/10/15 04:06:46;;;;;;;2.28;0.40;;;;;;;;;;5068690;28;20206;-62
2022/10/15 04:09:14;;;;;;;0.30;0.30;;;;;;;;;;5070566;28;20217;-63
2022/10/15 04:11:41;;;;;;;0.32;0.32;;;;;;;;;;5070368;28;20292;-62
2022/10/15 04:14:08;;;;;;;0.68;0.60;;;;;;;;;;5067724;28;20227;-63
2022/10/15 04:16:36;;;;;;;0.40;0.40;;;;;;;;;;5068097;28;20193;-63
2022/10/15 04:19:04;;;;;;;0.30;0.30;;;;;;;;;;5068965;28;20581;-63
2022/10/15 04:21:37;;;;;;;2.88;0.50;;;;;;;;;;5064286;28;20781;-61
2022/10/15 04:24:04;;;;;;;0.40;0.40;;;;;;;;;;5067921;28;20300;-63
2022/10/15 04:26:31;;;;;;;0.60;0.60;;;;;;;;;;5064576;28;20202;-63
2022/10/15 04:28:59;;;;;;;0.40;0.40;;;;;;;;;;5067499;28;20233;-63
2022/10/15 04:31:26;;;;;;;0.30;0.30;;;;;;;;;;5065967;28;20197;-63
2022/10/15 04:33:53;;;;;;;1.08;0.30;;;;;;;;;;5060712;28;20288;-63
2022/10/15 04:36:20;;;;;;;0.40;0.40;;;;;;;;;;5063516;28;20692;-64
2022/10/15 04:38:48;;;;;;;0.68;0.40;;;;;;;;;;5062120;28;20221;-61
2022/10/15 04:41:15;;;;;;;0.30;0.30;;;;;;;;;;5065896;28;20665;-61
2022/10/15 04:43:42;;;;;;;0.40;0.40;;;;;;;;;;5060785;28;20237;-62
2022/10/15 04:46:10;;;;;;;0.38;0.38;;;;;;;;;;5063245;28;20284;-63
2022/10/15 04:48:38;;;;;;;0.30;0.30;;;;;;;;;;5068779;28;20260;-62
2022/10/15 04:51:11;;;;;;;0.40;0.40;;;;;;;;;;5066799;28;20255;-64
2022/10/15 04:53:39;;;;;;;0.30;0.30;;;;;;;;;;5063722;28;20309;-62
2022/10/15 04:56:07;;;;;;;0.30;0.30;;;;;;;;;;5064975;28;20241;-62
2022/10/15 04:58:35;;;;;;;0.40;0.40;;;;;;;;;;5066787;28;20226;-62
2022/10/15 05:01:04;;;;;;;0.40;0.40;;;;;;;;;;5067613;28;20901;-62
2022/10/15 05:03:32;;;;;;;1.00;0.40;;;;;;;;;;5065317;28;20723;-63
2022/10/15 05:06:18;;;;;;;1.95;0.50;;;;;;;;;;5065705;28;20237;-61
2022/10/15 05:08:46;;;;;;;0.40;0.40;;;;;;;;;;5065867;28;20257;-63
2022/10/15 05:11:23;;;;;;;1.08;0.45;;;;;;;;;;5066396;28;20644;-62
2022/10/15 05:13:51;;;;;;;0.45;0.30;;;;;;;;;;5065654;28;20301;-63
2022/10/15 05:16:20;;;;;;;2.50;0.50;;;;;;;;;;5068698;28;20240;-62
2022/10/15 05:18:49;;;;;;;0.43;0.40;;;;;;;;;;5066865;28;20316;-62
2022/10/15 05:21:17;;;;;;;1.13;0.43;;;;;;;;;;5067470;28;20209;-62
2022/10/15 05:23:46;;;;;;;0.57;0.50;;;;;;;;;;5066246;28;20292;-62
2022/10/15 05:26:14;;;;;;;0.40;0.40;;;;;;;;;;5066141;28;20335;-62
2022/10/15 05:28:42;;;;;;;4.88;0.70;;;;;;;;;;5063084;28;20251;-62
2022/10/15 05:31:10;;;;;;;0.40;0.40;;;;;;;;;;5067867;28;20746;-62
2022/10/15 05:33:44;;;;;;;0.68;0.40;;;;;;;;;;5064687;28;20201;-61
2022/10/15 05:36:13;;;;;;;0.30;0.30;;;;;;;;;;5063491;28;20209;-62
2022/10/15 05:38:40;;;;;;;1.42;0.50;;;;;;;;;;5063581;28;20309;-62
2022/10/15 05:41:07;;;;;;;2.88;0.50;;;;;;;;;;5064864;28;20234;-62
2022/10/15 05:43:35;;;;;;;0.85;0.40;;;;;;;;;;5065742;28;20263;-62
2022/10/15 05:46:07;;;;;;;0.40;0.40;;;;;;;;;;5059566;28;20209;-62
2022/10/15 05:48:35;;;;;;;0.40;0.40;;;;;;;;;;5064865;28;20316;-61
2022/10/15 05:51:03;;;;;;;1.65;0.50;;;;;;;;;;5066484;28;20373;-62
2022/10/15 05:53:30;;;;;;;0.30;0.30;;;;;;;;;;5064143;28;20280;-61
2022/10/15 05:55:58;;;;;;;0.40;0.40;;;;;;;;;;5065541;28;20260;-63
2022/10/15 05:58:26;;;;;;;0.35;0.35;;;;;;;;;;5067174;28;20787;-64
2022/10/15 06:00:57;;;;;;;0.88;0.65;;;;;;;;;;5057836;28;20263;-62
2022/10/15 06:03:25;;;;;;;0.70;0.70;;;;;;;;;;5069662;28;20201;-62
2022/10/15 06:05:53;;;;;;;1.23;0.82;;;;;;;;;;5060228;28;20292;-64
2022/10/15 06:08:20;;;;;;;0.50;0.50;;;;;;;;;;5068292;28;20324;-62
2022/10/15 06:10:48;;;;;;;0.40;0.40;;;;;;;;;;5056759;28;20320;-61
2022/10/15 06:13:16;;;;;;;0.70;0.55;;;;;;;;;;5061961;28;20691;-62
2022/10/15 06:15:44;;;;;;;2.25;0.52;;;;;;;;;;5063624;28;20210;-62
2022/10/15 06:18:14;;;;;;;0.47;0.47;;;;;;;;;;5065430;28;20323;-63
2022/10/15 06:20:42;;;;;;;3.03;0.40;;;;;;;;;;5068043;28;20609;-61
2022/10/15 06:23:11;;;;;;;1.65;0.32;;;;;;;;;;5066435;28;20217;-63
2022/10/15 06:25:39;;;;;;;0.40;0.40;;;;;;;;;;5058836;28;20732;-62
2022/10/15 06:28:08;;;;;;;0.40;0.40;;;;;;;;;;5059585;28;20226;-62
2022/10/15 06:30:35;;;;;;;0.38;0.38;;;;;;;;;;5065006;28;20693;-62
2022/10/15 06:33:03;;;;;;;0.40;0.40;;;;;;;;;;5062679;28;20198;-63
2022/10/15 06:35:32;;;;;;;0.98;0.40;;;;;;;;;;5060861;28;20208;-64
2022/10/15 06:38:04;;;;;;;0.82;0.38;;;;;;;;;;5067181;28;20483;-61
2022/10/15 06:40:31;;;;;;;1.98;0.50;;;;;;;;;;5060972;28;20739;-61
2022/10/15 06:43:09;;;;;;;0.40;0.40;;;;;;;;;;5063430;28;20827;-62
2022/10/15 06:45:37;;;;;;;1.40;0.50;;;;;;;;;;5068524;28;20274;-62
2022/10/15 06:48:04;;;;;;;1.77;0.50;;;;;;;;;;5063868;28;20231;-61
2022/10/15 06:50:32;;;;;;;0.50;0.50;;;;;;;;;;5061695;28;20675;-63
2022/10/15 06:53:00;;;;;;;1.17;0.60;;;;;;;;;;5068320;28;20299;-61
2022/10/15 06:55:27;;;;;;;1.70;0.60;;;;;;;;;;5071643;28;20213;-63
2022/10/15 06:57:55;;;;;;;0.40;0.40;;;;;;;;;;5069117;28;20229;-62
2022/10/15 07:00:23;;;;;;;1.13;0.52;;;;;;;;;;5066095;28;20249;-64
2022/10/15 07:02:51;;;;;;;1.05;0.50;;;;;;;;;;5070776;28;20201;-62
2022/10/15 07:05:18;;;;;;;0.65;0.50;;;;;;;;;;5056750;28;20237;-61
2022/10/15 07:07:52;;;;;;;0.52;0.45;;;;;;;;;;5070699;28;20257;-62
2022/10/15 07:10:20;;;;;;;1.45;0.50;;;;;;;;;;5063831;28;20220;-62
2022/10/15 07:12:47;;;;;;;4.72;0.60;;;;;;;;;;5071635;28;20252;-64
2022/10/15 07:15:15;;;;;;;0.40;0.40;;;;;;;;;;5069810;28;20647;-62
2022/10/15 07:17:47;;;;;;;0.57;0.57;;;;;;;;;;5067025;28;20316;-63
2022/10/15 07:20:14;;;;;;;1.77;0.50;;;;;;;;;;5066909;28;20288;-61
2022/10/15 07:22:49;;;;;;;0.50;0.50;;;;;;;;;;5071770;28;20280;-64
2022/10/15 07:25:17;;;;;;;0.50;0.50;;;;;;;;;;5070715;28;20263;-62
2022/10/15 07:27:44;;;;;;;0.88;0.60;;;;;;;;;;5071231;28;20671;-63
2022/10/15 07:30:11;;;;;;;0.30;0.30;;;;;;;;;;5064428;28;20775;-63
2022/10/15 07:32:39;;;;;;;0.30;0.30;;;;;;;;;;5067098;28;20233;-61
2022/10/15 07:35:06;;;;;;;0.40;0.40;;;;;;;;;;5067835;28;20676;-61
2022/10/15 07:37:34;;;;;;;0.38;0.38;;;;;;;;;;5076508;28;20300;-62
2022/10/15 07:40:01;;;;;;;0.43;0.43;;;;;;;;;;5066166;28;20284;-62
2022/10/15 07:42:29;;;;;;;0.60;0.60;;;;;;;;;;5068630;28;20735;-61
2022/10/15 07:44:56;;;;;;;0.30;0.30;;;;;;;;;;5069236;28;20300;-62
2022/10/15 07:47:24;;;;;;;0.30;0.30;;;;;;;;;;5062866;28;20305;-63
2022/10/15 07:49:51;;;;;;;0.40;0.40;;;;;;;;;;5069549;28;20267;-61
2022/10/15 07:52:19;;;;;;;0.30;0.30;;;;;;;;;;5068419;28;20198;-63
2022/10/15 07:54:46;;;;;;;0.30;0.30;;;;;;;;;;5070457;28;20670;-61
2022/10/15 07:57:13;;;;;;;0.30;0.30;;;;;;;;;;5069190;28;20481;-62
2022/10/15 07:59:41;;;;;;;0.40;0.40;;;;;;;;;;5061615;28;20292;-62
2022/10/15 08:02:14;;;;;;;0.32;0.30;;;;;;;;;;5067215;28;20205;-61
2022/10/15 08:04:44;;;;;;;0.40;0.40;;;;;;;;;;5063081;28;20210;-62
2022/10/15 08:07:12;;;;;;;0.47;0.40;;;;;;;;;;5066348;28;20316;-62
2022/10/15 08:09:39;;;;;;;1.80;0.40;;;;;;;;;;5068984;28;20473;-62
2022/10/15 08:12:06;;;;;;;0.35;0.30;;;;;;;;;;5068479;28;20763;-62
2022/10/15 08:14:34;;;;;;;0.30;0.30;;;;;;;;;;5067137;28;20300;-62
2022/10/15 08:17:02;;;;;;;0.20;0.20;;;;;;;;;;5061065;28;20232;-62
2022/10/15 08:19:30;;;;;;;2.10;0.47;;;;;;;;;;5064092;28;20658;-61
2022/10/15 08:21:57;;;;;;;0.50;0.50;;;;;;;;;;5066694;28;20300;-64
2022/10/15 08:24:24;;;;;;;0.47;0.47;;;;;;;;;;5067605;28;20201;-63
2022/10/15 08:26:53;;;;;;;0.50;0.50;;;;;;;;;;5063094;28;20219;-63
2022/10/15 08:29:20;;;;;;;0.40;0.40;;;;;;;;;;5064857;28;20201;-62
2022/10/15 08:31:48;;;;;;;0.82;0.60;;;;;;;;;;5069186;28;20324;-62
2022/10/15 08:34:15;;;;;;;0.57;0.55;;;;;;;;;;5066462;28;20246;-63
2022/10/15 08:36:43;;;;;;;0.50;0.50;;;;;;;;;;5061373;28;20205;-63
2022/10/15 08:39:10;;;;;;;0.60;0.60;;;;;;;;;;5048952;28;21681;-63
2022/10/15 08:41:40;;;;;;;0.85;0.50;;;;;;;;;;5059183;28;20292;-63
2022/10/15 08:44:20;;;;;;;1.33;0.70;;;;;;;;;;5057336;28;20292;-62
2022/10/15 08:46:50;;;;;;;1.88;0.65;;;;;;;;;;5061180;28;20205;-62
2022/10/15 08:49:40;;;;;;;0.50;0.50;;;;;;;;;;5062285;28;20374;-63
2022/10/15 08:52:17;;;;;;;0.88;0.80;;;;;;;;;;5047384;28;20225;-63
2022/10/15 08:54:44;;;;;;;0.98;0.63;;;;;;;;;;5060995;28;20210;-62
2022/10/15 08:57:24;;;;;;;1.00;0.77;;;;;;;;;;5053067;28;20647;-63
2022/10/15 08:59:58;;;;;;;1.33;0.70;;;;;;;;;;5057982;28;20205;-62
2022/10/15 09:02:37;;;;;;;2.75;0.70;;;;;;;;;;5058117;28;20277;-62
2022/10/15 09:05:25;;;;;;;1.15;0.70;;;;;;;;;;5068087;28;20209;-63
2022/10/15 09:07:58;;;;;;;3.28;0.93;;;;;;;;;;5058210;28;20775;-63
2022/10/15 09:10:32;;;;;;;0.70;0.70;;;;;;;;;;5059910;28;20317;-62
2022/10/15 09:13:02;;;;;;;2.67;0.70;;;;;;;;;;5064631;28;20292;-63
2022/10/15 09:15:33;;;;;;;1.85;0.90;;;;;;;;;;5060817;28;20206;-62
2022/10/15 09:18:00;;;;;;;2.47;0.70;;;;;;;;;;5054081;28;20846;-63
2022/10/15 09:20:32;;;;;;;1.88;0.80;;;;;;;;;;5062690;28;20762;-63
2022/10/15 09:22:59;;;;;;;1.40;1.00;;;;;;;;;;5079172;28;20642;-63
2022/10/15 09:25:31;;;;;;;1.90;0.77;;;;;;;;;;5061619;28;20220;-63
2022/10/15 09:28:00;;;;;;;0.70;0.70;;;;;;;;;;5065700;28;20312;-63
2022/10/15 09:30:33;;;;;;;0.75;0.70;;;;;;;;;;5067868;28;20225;-63
2022/10/15 09:33:01;;;;;;;1.40;0.90;;;;;;;;;;5061252;28;20229;-63
2022/10/15 09:35:32;;;;;;;2.10;0.88;;;;;;;;;;5062295;28;20297;-63
2022/10/15 09:38:13;;;;;;;1.48;0.90;;;;;;;;;;5064290;28;20260;-63
2022/10/15 09:41:00;;;;;;;1.70;0.63;;;;;;;;;;5067149;28;20233;-63
2022/10/15 09:43:34;;;;;;;2.85;0.75;;;;;;;;;;5023622;28;20217;-63
2022/10/15 09:46:02;;;;;;;0.68;0.52;;;;;;;;;;5060946;28;20205;-63
2022/10/15 09:48:41;;;;;;;3.00;1.02;;;;;;;;;;5064689;28;20217;-63
2022/10/15 09:51:27;;;;;;;2.75;1.00;;;;;;;;;;5061393;28;20213;-63
2022/10/15 09:53:54;;;;;;;0.85;0.80;;;;;;;;;;5057732;28;20300;-63
2022/10/15 09:56:42;;;;;;;3.17;0.80;;;;;;;;;;5066656;28;20225;-63
2022/10/15 09:59:17;;;;;;;0.90;0.75;;;;;;;;;;5060578;28;20232;-63
2022/10/15 10:01:56;;;;;;;1.75;0.98;;;;;;;;;;5064412;28;20291;-63
2022/10/15 10:04:27;;;;;;;0.90;0.70;;;;;;;;;;5063386;28;20205;-64
2022/10/15 10:06:56;;;;;;;0.85;0.85;;;;;;;;;;5056697;28;20332;-63
2022/10/15 10:09:35;;;;;;;2.75;0.75;;;;;;;;;;5066769;28;20726;-62
2022/10/15 10:12:07;;;;;;;0.73;0.60;;;;;;;;;;5067716;28;20214;-63
2022/10/15 10:14:37;;;;;;;1.20;0.75;;;;;;;;;;5065406;28;20210;-62
2022/10/15 10:17:06;;;;;;;2.33;0.70;;;;;;;;;;5063095;28;20671;-63
2022/10/15 10:19:33;;;;;;;1.17;0.60;;;;;;;;;;5067630;28;20221;-62
2022/10/15 10:22:19;;;;;;;2.03;0.90;;;;;;;;;;5067345;28;20214;-62
2022/10/15 10:24:47;;;;;;;1.15;0.80;;;;;;;;;;5059817;28;20209;-62
2022/10/15 10:27:22;;;;;;;1.52;0.80;;;;;;;;;;5066621;28;20229;-63
2022/10/15 10:29:59;;;;;;;2.58;0.80;;;;;;;;;;5058401;28;20659;-63
2022/10/15 10:32:28;;;;;;;1.95;0.80;;;;;;;;;;5065312;28;20232;-62
2022/10/15 10:34:55;;;;;;;2.70;0.95;;;;;;;;;;5054371;28;20231;-62
2022/10/15 10:37:23;;;;;;;2.88;1.17;;;;;;;;;;5061696;28;20217;-63
2022/10/15 10:39:52;;;;;;;0.70;0.68;;;;;;;;;;5063776;28;20227;-63
2022/10/15 10:42:20;;;;;;;0.95;0.77;;;;;;;;;;5065150;28;20625;-62
2022/10/15 10:44:47;;;;;;;2.38;0.73;;;;;;;;;;5065081;28;20309;-61
2022/10/15 10:47:16;;;;;;;1.77;1.00;;;;;;;;;;5063222;28;20621;-61
2022/10/15 10:49:45;;;;;;;1.50;1.40;;;;;;;;;;5056696;28;20206;-61
2022/10/15 10:52:39;;;;;;;0.80;0.80;;;;;;;;;;5065098;28;20221;-63
2022/10/15 10:55:18;;;;;;;2.60;0.68;;;;;;;;;;5062134;28;20263;-63
2022/10/15 10:57:51;;;;;;;1.80;0.70;;;;;;;;;;5064037;28;20221;-63
2022/10/15 11:00:29;;;;;;;2.00;0.90;;;;;;;;;;5066565;28;20202;-61
2022/10/15 11:02:56;;;;;;;0.82;0.80;;;;;;;;;;5064950;28;20310;-63
2022/10/15 11:05:29;;;;;;;1.38;0.77;;;;;;;;;;5050885;28;20205;-61
2022/10/15 11:07:57;;;;;;;4.22;1.10;;;;;;;;;;5068163;28;20308;-61
2022/10/15 11:10:35;;;;;;;1.67;0.80;;;;;;;;;;5068104;28;20292;-61
2022/10/15 11:13:28;;;;;;;1.25;0.73;;;;;;;;;;5064546;28;20210;-63
2022/10/15 11:16:07;;;;;;;2.10;0.70;;;;;;;;;;5054744;28;20285;-62
2022/10/15 11:18:53;;;;;;;1.58;0.70;;;;;;;;;;5057540;28;20239;-62
2022/10/15 11:21:46;;;;;;;4.00;0.90;;;;;;;;;;5063268;28;20209;-62
2022/10/15 11:24:23;;;;;;;1.05;0.47;;;;;;;;;;5064233;28;20292;-61
2022/10/15 11:26:56;;;;;;;0.70;0.70;;;;;;;;;;5064921;28;20206;-61
2022/10/15 11:29:37;;;;;;;1.58;0.70;;;;;;;;;;5065422;28;20260;-61
2022/10/15 11:32:14;;;;;;;0.88;0.70;;;;;;;;;;5062466;28;20257;-62
2022/10/15 11:34:55;;;;;;;1.52;0.68;;;;;;;;;;5058195;28;20205;-61
2022/10/15 11:37:23;;;;;;;1.65;0.80;;;;;;;;;;5069342;28;20370;-62
2022/10/15 11:40:01;;;;;;;0.52;0.50;;;;;;;;;;5062453;28;20197;-64
2022/10/15 11:42:29;;;;;;;1.75;0.77;;;;;;;;;;5063962;28;20207;-61
2022/10/15 11:45:03;;;;;;;1.13;0.80;;;;;;;;;;5070787;28;20288;-61
2022/10/15 11:47:47;;;;;;;1.60;0.70;;;;;;;;;;5069828;28;20652;-61
2022/10/15 11:50:32;;;;;;;1.48;0.80;;;;;;;;;;5068535;28;20229;-63
2022/10/15 11:53:09;;;;;;;1.23;0.82;;;;;;;;;;5051417;28;20198;-63
2022/10/15 11:55:41;;;;;;;1.55;0.63;;;;;;;;;;5052537;28;20467;-61
2022/10/15 11:58:23;;;;;;;1.33;0.70;;;;;;;;;;5063504;28;20309;-62
2022/10/15 12:00:52;;;;;;;0.65;0.60;;;;;;;;;;5062296;28;20263;-62
2022/10/15 12:03:23;;;;;;;0.77;0.77;;;;;;;;;;5065238;28;20226;-62
2022/10/15 12:05:59;;;;;;;4.53;1.00;;;;;;;;;;5066142;28;20742;-61
2022/10/15 12:08:29;;;;;;;3.30;0.90;;;;;;;;;;5063632;28;20218;-61
2022/10/15 12:10:57;;;;;;;1.08;0.80;;;;;;;;;;5058811;28;20235;-62
2022/10/15 12:13:24;;;;;;;0.77;0.70;;;;;;;;;;5063826;28;20309;-61
2022/10/15 12:16:04;;;;;;;1.02;0.70;;;;;;;;;;5062951;28;20202;-64
2022/10/15 12:18:35;;;;;;;2.25;0.70;;;;;;;;;;5062171;28;20305;-62
2022/10/15 12:21:02;;;;;;;1.58;0.60;;;;;;;;;;5062282;28;20289;-61
2022/10/15 12:23:35;;;;;;;1.85;0.75;;;;;;;;;;5066339;28;20210;-62
2022/10/15 12:26:23;;;;;;;1.50;0.60;;;;;;;;;;5066284;28;20233;-63
2022/10/15 12:28:52;;;;;;;0.75;0.60;;;;;;;;;;5062986;28;20240;-61
2022/10/15 12:31:20;;;;;;;2.15;0.57;;;;;;;;;;5063720;28;20245;-61
2022/10/15 12:33:47;;;;;;;1.15;0.60;;;;;;;;;;5066765;28;20288;-62
2022/10/15 12:36:29;;;;;;;1.80;0.88;;;;;;;;;;5062125;28;20764;-63
2022/10/15 12:38:59;;;;;;;1.65;0.60;;;;;;;;;;5070166;28;20229;-62
2022/10/15 12:41:40;;;;;;;0.82;0.50;;;;;;;;;;5065911;28;20244;-62
2022/10/15 12:44:11;;;;;;;0.70;0.70;;;;;;;;;;5064460;28;20286;-63
2022/10/15 12:46:39;;;;;;;0.90;0.60;;;;;;;;;;5065247;28;20613;-62
2022/10/15 12:49:25;;;;;;;0.50;0.50;;;;;;;;;;5052056;28;20289;-62
2022/10/15 12:51:53;;;;;;;0.60;0.60;;;;;;;;;;5065070;28;20221;-62
2022/10/15 12:54:39;;;;;;;1.17;0.63;;;;;;;;;;5067895;28;20201;-62
2022/10/15 12:57:45;;;;;;;0.80;0.57;;;;;;;;;;5063585;28;20214;-61
2022/10/15 13:00:32;;;;;;;1.10;0.60;;;;;;;;;;4987792;28;20195;-62
2022/10/15 13:03:09;;;;;;;1.38;0.60;;;;;;;;;;5051310;28;20197;-63
2022/10/15 13:05:37;;;;;;;1.50;0.52;;;;;;;;;;5060613;28;20244;-64
2022/10/15 13:08:06;;;;;;;0.93;0.75;;;;;;;;;;5064210;28;20279;-61
2022/10/15 13:10:45;;;;;;;1.05;0.60;;;;;;;;;;5061336;28;20296;-62
2022/10/15 13:13:15;;;;;;;0.80;0.70;;;;;;;;;;5057757;28;20221;-63
2022/10/15 13:15:49;;;;;;;1.75;0.57;;;;;;;;;;5059146;28;20233;-62
2022/10/15 13:18:23;;;;;;;1.92;0.73;;;;;;;;;;5066828;28;20221;-62
2022/10/15 13:20:53;;;;;;;0.60;0.60;;;;;;;;;;5068980;28;20380;-61
2022/10/15 13:23:20;;;;;;;0.68;0.68;;;;;;;;;;5065713;28;20728;-61
2022/10/15 13:26:16;;;;;;;2.70;0.98;;;;;;;;;;5063586;28;20209;-62
2022/10/15 13:28:44;;;;;;;1.35;0.60;;;;;;;;;;5060186;28;20268;-62
2022/10/15 13:31:14;;;;;;;0.57;0.57;;;;;;;;;;5063558;28;20206;-61
2022/10/15 13:33:43;;;;;;;0.60;0.60;;;;;;;;;;5068689;28;20201;-63
2022/10/15 13:36:16;;;;;;;0.80;0.70;;;;;;;;;;5060441;28;20658;-61
2022/10/15 13:38:50;;;;;;;1.65;0.70;;;;;;;;;;5064654;28;20703;-63
2022/10/15 13:41:22;;;;;;;2.42;0.70;;;;;;;;;;5059975;28;20236;-63
2022/10/15 13:43:50;;;;;;;0.52;0.50;;;;;;;;;;5066401;28;20229;-61
2022/10/15 13:46:18;;;;;;;2.08;0.63;;;;;;;;;;5066476;28;20292;-62
2022/10/15 13:48:45;;;;;;;2.53;0.60;;;;;;;;;;5068230;28;20261;-61
2022/10/15 13:51:12;;;;;;;0.93;0.60;;;;;;;;;;5065739;28;20292;-61
2022/10/15 13:53:41;;;;;;;0.50;0.50;;;;;;;;;;5068411;28;20238;-63
2022/10/15 13:56:26;;;;;;;0.60;0.60;;;;;;;;;;5068956;28;20314;-62
2022/10/15 13:58:54;;;;;;;1.00;0.68;;;;;;;;;;5061779;28;20656;-62
2022/10/15 14:01:23;;;;;;;3.38;0.60;;;;;;;;;;5065892;28;20284;-62
2022/10/15 14:03:50;;;;;;;0.40;0.40;;;;;;;;;;5058811;28;20337;-63
2022/10/15 14:06:22;;;;;;;0.47;0.45;;;;;;;;;;5063835;28;20247;-63
2022/10/15 14:08:53;;;;;;;1.38;0.50;;;;;;;;;;5068081;28;20857;-62
2022/10/15 14:11:21;;;;;;;2.47;0.93;;;;;;;;;;5067353;28;20280;-61
2022/10/15 14:13:49;;;;;;;1.40;0.80;;;;;;;;;;5063179;28;20297;-63
2022/10/15 14:16:21;;;;;;;1.65;0.57;;;;;;;;;;5055352;28;20371;-63
2022/10/15 14:18:50;;;;;;;0.80;0.80;;;;;;;;;;5068390;28;20313;-63
2022/10/15 14:21:19;;;;;;;0.77;0.77;;;;;;;;;;5068841;28;20237;-63
2022/10/15 14:23:47;;;;;;;1.92;0.55;;;;;;;;;;5066399;28;20289;-62
2022/10/15 14:26:15;;;;;;;0.82;0.82;;;;;;;;;;5058144;28;20212;-62
2022/10/15 14:28:49;;;;;;;0.55;0.55;;;;;;;;;;5062221;28;20226;-62
2022/10/15 14:31:29;;;;;;;1.85;0.70;;;;;;;;;;5054765;28;20201;-63
2022/10/15 14:33:56;;;;;;;0.80;0.80;;;;;;;;;;5057822;28;20262;-63
2022/10/15 14:36:31;;;;;;;1.65;0.73;;;;;;;;;;5059555;28;20293;-63
2022/10/15 14:39:17;;;;;;;0.80;0.80;;;;;;;;;;5056621;28;20228;-61
2022/10/15 14:41:58;;;;;;;1.67;0.80;;;;;;;;;;5064807;28;20243;-62
2022/10/15 14:44:26;;;;;;;0.73;0.70;;;;;;;;;;5064399;28;20243;-63
2022/10/15 14:47:00;;;;;;;1.20;0.70;;;;;;;;;;5059242;28;20209;-62
2022/10/15 14:49:30;;;;;;;2.92;0.73;;;;;;;;;;5063783;28;20205;-61
2022/10/15 14:52:03;;;;;;;0.70;0.70;;;;;;;;;;5061087;28;20275;-62
2022/10/15 14:54:34;;;;;;;1.85;1.00;;;;;;;;;;5050475;28;20202;-62
2022/10/15 14:57:02;;;;;;;0.85;0.70;;;;;;;;;;5062745;28;20667;-62
2022/10/15 14:59:31;;;;;;;0.73;0.73;;;;;;;;;;5059402;28;20908;-62
2022/10/15 15:01:59;;;;;;;1.65;0.90;;;;;;;;;;5062449;28;20652;-62
2022/10/15 15:04:37;;;;;;;0.60;0.60;;;;;;;;;;5054177;28;20220;-61
2022/10/15 15:07:21;;;;;;;0.82;0.70;;;;;;;;;;5061064;28;20257;-66